Latest Weather Observations for Argyle

IDD60801

Issued at 10:35 pm CST Thursday 31 July 2014 (issued every 30 minutes, with the page automatically refreshed every 10 minutes)

About weather observations | Map of weather stations | Latest weather observations for NT | Other Formats
Station Details ID: 002064 Name: ARGYLE AERODROME Lat: -16.64 Lon: 128.45 Height: 164.0 m
Data from the previous 72 hours. | See also: Recent months at Argyle
Date/Time
CST
Temp
°C
App
Temp
°C
Dew
Point
Rel
Hum
%
Delta-T
°C
Wind Press
QNH
hPa
Press
MSL
hPa
Rain
since 9 am
mm
Dir
 
Spd
km/h
Gust
km/h
Spd
kts
Gust
kts
31/10:30pm 24.6 21.0 2.8 24 10.6 WSW 11 11 6 6 1015.7 1015.0 0.0
31/10:00pm 25.6 22.6 2.0 21 11.4 SW 7 7 4 4 1015.5 - 0.0
31/09:30pm 26.5 23.6 2.8 21 11.7 SSW 7 11 4 6 1015.4 - 0.0
31/09:00pm 26.5 23.5 1.7 20 12.0 W 7 7 4 4 1015.3 - 0.0
31/08:30pm 26.8 23.7 1.6 19 12.2 W 7 11 4 6 1014.9 - 0.0
31/08:00pm 27.2 24.2 1.7 19 12.4 W 7 9 4 5 1014.5 - 0.0
31/07:30pm 28.7 25.1 0.8 16 13.5 N 9 9 5 5 1014.2 1013.5 0.0
31/07:00pm 29.3 25.6 0.1 15 14.0 N 9 11 5 6 1014.0 - 0.0
31/06:30pm 30.8 27.8 1.7 15 14.5 NNE 7 9 4 5 1013.9 - 0.0
31/06:00pm 31.9 28.7 -0.7 12 15.7 E 6 11 3 6 1013.8 - 0.0
31/05:30pm 32.1 28.7 -0.6 12 15.8 E 7 9 4 5 1013.8 - 0.0
31/05:00pm 32.5 28.1 -2.4 10 16.4 ENE 11 15 6 8 1013.7 - 0.0
31/04:30pm 32.6 29.4 -0.2 12 16.0 S 6 9 3 5 1013.7 1013.0 0.0
31/04:00pm 32.4 28.6 -0.7 12 16.0 SSE 9 15 5 8 1013.9 - 0.0
31/03:30pm 32.4 28.9 -1.7 11 16.2 NNE 7 17 4 9 1014.3 - 0.0
31/03:00pm 32.2 28.1 -2.8 10 16.3 ESE 9 17 5 9 1014.8 - 0.0
31/02:30pm 32.0 27.2 -2.4 11 16.1 SE 13 19 7 10 1015.5 - 0.0
31/02:00pm 31.3 27.5 -0.5 13 15.3 ENE 9 17 5 9 1015.8 - 0.0
31/01:30pm 31.2 26.8 -2.2 11 15.6 ENE 11 19 6 10 1016.5 1015.8 0.0
31/01:00pm 30.7 25.9 -2.2 12 15.3 E 13 20 7 11 1017.0 - 0.0
31/12:30pm 29.6 - - - - E 13 22 7 12 1017.6 - 0.0
31/12:00pm 29.0 24.5 -3.1 12 14.5 NE 11 19 6 10 1017.9 - 0.0
31/11:30am 28.6 23.5 -1.8 13 14.0 E 15 22 8 12 1018.3 - 0.0
31/11:00am 28.2 23.7 -2.9 13 14.0 E 11 20 6 11 1018.8 - 0.0
31/10:30am 26.7 22.7 -2.1 15 13.0 E 9 15 5 8 1019.0 1018.3 0.0
31/10:00am 26.1 21.5 -1.4 16 12.5 E 13 17 7 9 1018.9 - 0.0
31/09:30am 25.3 22.2 0.2 19 11.7 E 6 11 3 6 1018.9 - 0.0
31/09:00am 23.9 20.7 1.0 22 10.7 E 7 9 4 5 1018.7 - 0.0
31/08:30am 22.3 19.4 1.5 25 9.7 ENE 6 9 3 5 1018.2 - 0.0
31/08:00am 21.0 18.0 2.2 29 8.8 E 7 9 4 5 1017.8 - 0.0
31/07:30am 19.5 16.6 2.6 32 7.9 E 7 9 4 5 1017.6 1017.0 0.0
31/07:00am 19.2 17.8 3.6 35 7.4 CALM 0 0 0 0 1017.2 - 0.0
31/06:30am 19.5 18.0 3.2 34 7.7 CALM 0 0 0 0 1016.9 - 0.0
31/06:00am 20.1 17.9 0.9 27 8.7 WSW 2 6 1 3 1016.7 - 0.0
31/05:30am 19.8 17.0 2.1 31 8.2 WSW 6 7 3 4 1016.7 - 0.0
31/05:00am 19.5 18.1 3.5 34 7.6 CALM 0 0 0 0 1016.6 - 0.0
31/04:30am 19.7 18.1 2.6 32 8.0 CALM 0 0 0 0 1016.5 1015.8 0.0
31/04:00am 20.5 19.3 4.5 35 7.8 CALM 0 0 0 0 1016.6 - 0.0
31/03:30am 20.1 18.4 4.2 35 7.7 WNW 2 7 1 4 1016.7 - 0.0
31/03:00am 21.9 20.3 2.2 27 9.3 CALM 0 0 0 0 1016.7 - 0.0
31/02:30am 22.5 20.8 1.6 25 9.8 CALM 0 0 0 0 1016.9 - 0.0
31/02:00am 22.2 20.5 1.7 26 9.6 CALM 0 0 0 0 1017.0 - 0.0
31/01:30am 23.0 21.2 1.5 24 10.1 SSE 0 0 0 0 1017.1 1016.5 0.0
31/01:00am 21.8 19.0 3.0 29 9.0 W 7 9 4 5 1017.1 - 0.0
31/12:30am 21.4 18.9 3.6 31 8.6 W 6 7 3 4 1017.1 - 0.0
31/12:00am 22.1 19.7 4.5 31 8.7 ESE 6 7 3 4 1016.9 - 0.0
 
Date/Time
CST
Temp
°C
App
Temp
°C
Dew
Point
Rel
Hum
%
Delta-T
°C
Wind Press
QNH
hPa
Press
MSL
hPa
Rain
since 9 am
mm
Dir
 
Spd
km/h
Gust
km/h
Spd
kts
Gust
kts
30/11:30pm 22.3 19.4 4.5 31 8.8 ESE 9 11 5 6 1017.0 - 0.0
30/11:00pm 23.3 20.4 4.4 29 9.4 SE 9 11 5 6 1017.1 - 0.0
30/10:30pm 24.4 22.2 5.3 29 9.7 S 6 7 3 4 1017.0 1016.3 0.0
30/10:00pm 25.9 23.0 2.6 22 11.4 SSW 7 7 4 4 1017.0 - 0.0
30/09:30pm 26.2 23.7 4.8 25 10.9 SSW 7 9 4 5 1016.9 - 0.0
30/09:00pm 25.7 22.9 2.9 22 11.2 SW 7 11 4 6 1016.8 - 0.0
30/08:30pm 25.9 23.1 2.9 22 11.3 W 7 9 4 5 1016.6 - 0.0
30/08:00pm 27.4 24.5 2.8 20 12.2 N 7 9 4 5 1016.2 - 0.0
30/07:30pm 27.7 24.5 3.1 20 12.3 NNE 9 11 5 6 1015.9 1015.2 0.0
30/07:00pm 28.2 25.8 5.1 23 12.0 ENE 7 9 4 5 1015.6 - 0.0
30/06:30pm 30.0 27.2 3.3 18 13.6 ENE 7 11 4 6 1015.3 - 0.0
30/06:00pm 31.1 27.5 0.7 14 14.9 ESE 9 15 5 8 1015.1 - 0.0
30/05:30pm 31.6 27.2 0.3 13 15.3 ENE 13 19 7 10 1014.9 - 0.0
30/05:00pm 31.9 28.7 0.6 13 15.4 NE 7 13 4 7 1014.9 - 0.0
30/04:30pm 32.0 28.9 0.0 13 15.6 ENE 6 15 3 8 1014.9 1014.2 0.0
30/04:00pm 31.8 26.9 -0.5 12 15.6 E 15 20 8 11 1015.0 - 0.0
30/03:30pm 31.9 27.4 -0.3 12 15.6 ESE 13 17 7 9 1014.9 - 0.0
30/03:00pm 31.7 27.3 0.1 13 15.4 SE 13 20 7 11 1015.2 - 0.0
30/02:30pm 31.3 25.3 -1.9 11 15.6 E 20 30 11 16 1015.7 - 0.0
30/02:00pm 31.5 25.6 -2.4 11 15.8 E 19 28 10 15 1016.4 - 0.0
30/01:30pm 30.9 24.4 -2.6 11 15.5 E 22 32 12 17 1017.0 1016.3 0.0
30/01:00pm 31.1 25.2 -2.6 11 15.6 ESE 19 26 10 14 1017.7 - 0.0
30/12:30pm 30.0 23.1 -2.8 12 15.0 ESE 24 32 13 17 1018.3 - 0.0
30/12:00pm 29.5 23.5 -1.3 13 14.4 E 20 33 11 18 1019.0 - 0.0
30/11:30am 28.4 22.1 -1.0 14 13.7 E 22 39 12 21 1019.4 - 0.0
30/11:00am 27.4 21.1 -1.3 15 13.2 E 22 33 12 18 1019.9 - 0.0
30/10:30am 27.4 22.9 0.0 16 12.9 E 13 20 7 11 1020.2 1019.5 -
30/10:00am 26.4 22.9 1.4 19 12.0 ESE 9 15 5 8 1020.3 - -
30/09:30am 25.5 22.5 2.1 22 11.3 ESE 7 11 4 6 1020.3 - -
30/09:00am 24.5 22.0 3.9 26 10.2 E 6 9 3 5 1020.0 - -
30/08:30am 23.6 21.8 3.6 27 9.8 SE 2 9 1 5 1019.9 - -
30/08:00am 21.6 20.1 4.8 33 8.3 S 2 7 1 4 1019.2 - -
30/07:30am 20.3 19.3 5.6 38 7.3 CALM 0 0 0 0 1018.9 1018.2 -
30/07:00am 20.5 19.3 4.5 35 7.8 CALM 0 4 0 2 1018.4 - -
30/06:30am 20.7 18.5 5.4 36 7.6 SSW 6 7 3 4 1018.1 - -
30/06:00am 20.9 18.3 3.3 31 8.4 W 6 7 3 4 1018.0 - -
30/05:30am 20.4 17.5 4.4 35 7.8 WNW 9 11 5 6 1017.8 - -
30/05:00am 20.5 17.8 3.9 33 8.0 W 7 9 4 5 1017.5 - -
30/04:30am 20.7 18.0 3.9 33 8.1 W 7 7 4 4 1017.4 1016.8 -
30/04:00am 21.1 19.7 3.7 32 8.4 CALM 0 7 0 4 1017.3 - -
30/03:30am 21.5 20.4 5.0 34 8.2 CALM 0 0 0 0 1017.4 - -
30/03:00am 21.7 19.0 3.8 31 8.7 NNW 7 9 4 5 1017.5 - -
30/02:30am 21.8 19.0 3.3 29 8.9 N 7 9 4 5 1017.5 - -
30/02:00am 22.1 19.2 4.5 31 8.7 ESE 9 13 5 7 1017.6 - -
30/01:30am 23.1 19.2 3.4 27 9.6 ESE 13 17 7 9 1017.6 1017.0 -
30/01:00am 23.9 19.6 3.2 26 10.1 ESE 15 20 8 11 1017.7 - -
30/12:30am 23.2 20.3 4.5 29 9.3 ESE 9 13 5 7 1017.7 - -
30/12:00am 23.4 20.5 4.8 30 9.3 ESE 9 11 5 6 1017.8 - 0.0
 
Date/Time
CST
Temp
°C
App
Temp
°C
Dew
Point
Rel
Hum
%
Delta-T
°C
Wind Press
QNH
hPa
Press
MSL
hPa
Rain
since 9 am
mm
Dir
 
Spd
km/h
Gust
km/h
Spd
kts
Gust
kts
29/11:30pm 23.3 20.5 5.0 30 9.2 E 9 11 5 6 1017.9 - -
29/11:00pm 23.9 21.1 5.1 29 9.5 E 9 11 5 6 1018.0 - -
29/10:30pm 23.9 21.3 6.3 32 9.1 ESE 9 9 5 5 1017.9 1017.3 -
29/10:00pm 24.6 22.4 6.0 30 9.6 E 7 9 4 5 1017.9 - -
29/09:30pm 25.7 23.2 6.7 29 10.0 SSE 9 9 5 5 1017.6 - -
29/09:00pm 26.0 23.6 6.9 29 10.1 SSE 9 11 5 6 1017.4 - -
29/08:30pm 26.6 24.1 6.5 27 10.6 S 9 11 5 6 1017.1 - -
29/08:00pm 26.9 26.3 7.5 29 10.4 CALM 0 6 0 3 1016.7 - -
29/07:30pm 27.3 25.2 6.5 26 11.0 E 7 7 4 4 1016.5 1015.8 -
29/07:00pm 28.0 25.9 6.8 26 11.3 E 7 9 4 5 1016.2 - -
29/06:30pm 30.1 26.7 4.2 19 13.4 E 11 15 6 8 1015.9 - -
29/06:00pm 31.1 27.6 3.4 17 14.2 ENE 11 17 6 9 1015.7 - -
29/05:30pm 31.7 27.3 2.6 15 14.8 E 15 24 8 13 1015.4 - -
29/05:00pm 32.2 27.5 2.9 15 15.0 ENE 17 24 9 13 1015.1 - -
29/04:30pm 32.0 26.5 2.1 15 15.1 ENE 20 26 11 14 1015.2 1014.5 0.4
29/04:00pm 32.2 27.5 2.9 15 15.0 ENE 17 22 9 12 1015.4 - 0.4
29/03:30pm 32.2 28.7 3.3 16 14.9 E 11 20 6 11 1015.4 - 0.4
29/03:00pm 31.4 27.1 3.0 16 14.5 ENE 15 22 8 12 1015.8 - 0.4
29/02:30pm 31.4 27.6 3.7 17 14.3 E 13 24 7 13 1016.3 - 0.4
29/02:00pm 31.1 25.7 2.7 16 14.4 ESE 20 30 11 16 1016.8 - 0.0
29/01:30pm 31.4 26.6 2.6 16 14.6 ENE 17 28 9 15 1017.4 1016.8 0.0
29/01:00pm 30.5 24.7 2.4 16 14.1 E 22 28 12 15 1018.1 - 0.0
29/12:30pm 30.4 24.2 2.2 16 14.1 E 24 37 13 20 1018.8 - 0.0
29/12:00pm 30.0 24.2 2.1 16 13.9 ESE 22 33 12 18 1019.2 - 0.0
29/11:30am 29.2 24.0 2.5 18 13.3 E 19 28 10 15 1019.6 - 0.0
29/11:00am 28.5 23.7 2.5 19 12.9 E 17 28 9 15 1020.0 - 0.0
29/10:30am 28.5 24.1 2.9 19 12.8 E 15 20 8 11 1020.3 1019.6 0.0
29/10:00am 27.0 23.3 2.3 20 12.1 E 11 17 6 9 1020.3 - 0.0
29/09:30am 25.4 23.0 4.3 25 10.6 SE 6 7 3 4 1020.2 - 0.0
29/09:00am 24.5 22.8 3.9 26 10.2 NNW 2 7 1 4 1020.2 - 0.0
29/08:30am 22.3 20.4 4.8 32 8.7 WNW 4 6 2 3 1020.0 - 0.0
29/08:00am 21.2 19.1 5.6 36 7.8 WSW 6 7 3 4 1019.5 - 0.0
29/07:30am 20.2 19.3 6.0 39 7.1 CALM 0 0 0 0 1019.2 1018.5 0.0
29/07:00am 19.9 18.9 5.6 39 7.1 CALM 0 0 0 0 1018.9 - 0.0
29/06:30am 20.5 19.6 6.2 39 7.2 CALM 0 4 0 2 1018.5 - 0.0
29/06:00am 19.6 18.8 6.5 42 6.6 CALM 0 6 0 3 1018.2 - 0.0
29/05:30am 21.5 18.7 5.2 34 8.1 SE 9 9 5 5 1017.9 - 0.0
29/05:00am 21.4 19.3 6.8 38 7.5 SE 7 9 4 5 1017.8 - 0.0
29/04:30am 22.3 21.3 5.4 33 8.5 CALM 0 4 0 2 1017.6 1017.0 0.0
29/04:00am 21.9 21.1 6.7 37 7.8 CALM 0 0 0 0 1017.4 - 0.0
29/03:30am 21.9 20.8 7.0 38 7.7 ESE 2 6 1 3 1017.2 - 0.0
29/03:00am 22.6 20.1 6.4 35 8.3 SE 9 11 5 6 1017.1 - 0.0
29/02:30am 23.4 20.2 5.1 30 9.2 SE 11 15 6 8 1017.2 - 0.0
29/02:00am 23.2 20.3 6.3 33 8.7 SE 11 15 6 8 1017.4 - 0.0
29/01:30am 23.3 20.9 7.2 35 8.4 SSE 9 9 5 5 1017.5 1016.9 0.0
29/01:00am 23.7 21.3 7.1 34 8.7 SSE 9 11 5 6 1017.5 - 0.0
29/12:30am 24.1 22.0 6.6 32 9.1 S 7 11 4 6 1017.6 - 0.0

Other Formats:

Comma delimited format used in spreadsheet applications
http://www.bom.gov.au/fwo/IDD60801/IDD60801.94217.axf

JavaScript Object Notation format (JSON) in row-major order
http://www.bom.gov.au/fwo/IDD60801/IDD60801.94217.json